sensor_id;sensor_type;location;lat;lon;timestamp;temperature;humidity
7648;DHT22;3866;48.020;11.720;2022-09-20T00:01:06;8.10;99.90
7648;DHT22;3866;48.020;11.720;2022-09-20T00:03:33;8.10;99.90
7648;DHT22;3866;48.020;11.720;2022-09-20T00:06:01;8.10;99.90
7648;DHT22;3866;48.020;11.720;2022-09-20T00:08:29;8.00;99.90
7648;DHT22;3866;48.020;11.720;2022-09-20T00:10:58;8.00;99.90
7648;DHT22;3866;48.020;11.720;2022-09-20T00:13:27;8.10;99.90
7648;DHT22;3866;48.020;11.720;2022-09-20T00:15:55;8.00;99.90
7648;DHT22;3866;48.020;11.720;2022-09-20T00:18:23;7.90;99.90
7648;DHT22;3866;48.020;11.720;2022-09-20T00:20:50;7.90;99.90
7648;DHT22;3866;48.020;11.720;2022-09-20T00:23:17;7.80;99.90
7648;DHT22;3866;48.020;11.720;2022-09-20T00:25:52;7.90;99.90
7648;DHT22;3866;48.020;11.720;2022-09-20T00:28:19;7.80;99.90
7648;DHT22;3866;48.020;11.720;2022-09-20T00:30:46;7.80;99.90
7648;DHT22;3866;48.020;11.720;2022-09-20T00:33:15;7.80;99.90
7648;DHT22;3866;48.020;11.720;2022-09-20T00:35:42;7.80;99.90
7648;DHT22;3866;48.020;11.720;2022-09-20T00:38:08;7.80;99.90
7648;DHT22;3866;48.020;11.720;2022-09-20T00:40:35;7.70;99.90
7648;DHT22;3866;48.020;11.720;2022-09-20T00:43:02;7.70;99.90
7648;DHT22;3866;48.020;11.720;2022-09-20T00:45:29;7.70;99.90
7648;DHT22;3866;48.020;11.720;2022-09-20T00:47:58;7.70;99.90
7648;DHT22;3866;48.020;11.720;2022-09-20T00:50:32;7.80;99.90
7648;DHT22;3866;48.020;11.720;2022-09-20T00:53:05;7.80;99.90
7648;DHT22;3866;48.020;11.720;2022-09-20T00:55:34;7.70;99.90
7648;DHT22;3866;48.020;11.720;2022-09-20T00:58:03;7.80;99.90
7648;DHT22;3866;48.020;11.720;2022-09-20T01:00:31;7.90;99.90
7648;DHT22;3866;48.020;11.720;2022-09-20T01:03:01;7.80;99.90
7648;DHT22;3866;48.020;11.720;2022-09-20T01:05:33;7.80;99.90
7648;DHT22;3866;48.020;11.720;2022-09-20T01:08:01;7.70;99.90
7648;DHT22;3866;48.020;11.720;2022-09-20T01:10:29;7.70;99.90
7648;DHT22;3866;48.020;11.720;2022-09-20T01:12:57;7.70;99.90
7648;DHT22;3866;48.020;11.720;2022-09-20T01:15:25;7.70;99.90
7648;DHT22;3866;48.020;11.720;2022-09-20T01:17:55;7.80;99.90
7648;DHT22;3866;48.020;11.720;2022-09-20T01:20:25;7.80;99.90
7648;DHT22;3866;48.020;11.720;2022-09-20T01:23:05;7.80;99.90
7648;DHT22;3866;48.020;11.720;2022-09-20T01:28:30;7.90;99.90
7648;DHT22;3866;48.020;11.720;2022-09-20T01:31:02;7.90;99.90
7648;DHT22;3866;48.020;11.720;2022-09-20T01:33:35;7.90;99.90
7648;DHT22;3866;48.020;11.720;2022-09-20T01:36:06;7.90;99.90
7648;DHT22;3866;48.020;11.720;2022-09-20T01:38:41;7.90;99.90
7648;DHT22;3866;48.020;11.720;2022-09-20T01:41:13;7.90;99.90
7648;DHT22;3866;48.020;11.720;2022-09-20T01:43:49;7.90;99.90
7648;DHT22;3866;48.020;11.720;2022-09-20T01:46:27;7.80;99.90
7648;DHT22;3866;48.020;11.720;2022-09-20T01:49:04;7.90;99.90
7648;DHT22;3866;48.020;11.720;2022-09-20T01:54:58;8.00;99.90
7648;DHT22;3866;48.020;11.720;2022-09-20T02:00:51;8.00;99.90
7648;DHT22;3866;48.020;11.720;2022-09-20T02:03:53;8.00;99.90
7648;DHT22;3866;48.020;11.720;2022-09-20T02:06:37;8.10;99.90
7648;DHT22;3866;48.020;11.720;2022-09-20T02:09:35;8.00;99.90
7648;DHT22;3866;48.020;11.720;2022-09-20T02:12:19;8.00;99.90
7648;DHT22;3866;48.020;11.720;2022-09-20T02:14:56;7.90;99.90
7648;DHT22;3866;48.020;11.720;2022-09-20T02:17:31;7.90;99.90
7648;DHT22;3866;48.020;11.720;2022-09-20T02:20:09;7.90;99.90
7648;DHT22;3866;48.020;11.720;2022-09-20T02:22:43;7.90;99.90
7648;DHT22;3866;48.020;11.720;2022-09-20T02:25:37;7.80;99.90
7648;DHT22;3866;48.020;11.720;2022-09-20T02:28:21;7.90;99.90
7648;DHT22;3866;48.020;11.720;2022-09-20T02:30:55;7.90;99.90
7648;DHT22;3866;48.020;11.720;2022-09-20T02:36:52;7.90;99.90
7648;DHT22;3866;48.020;11.720;2022-09-20T02:39:28;8.00;99.90
7648;DHT22;3866;48.020;11.720;2022-09-20T02:42:03;8.00;99.90
7648;DHT22;3866;48.020;11.720;2022-09-20T02:44:51;8.00;99.90
7648;DHT22;3866;48.020;11.720;2022-09-20T02:47:26;7.90;99.90
7648;DHT22;3866;48.020;11.720;2022-09-20T02:50:11;7.90;99.90
7648;DHT22;3866;48.020;11.720;2022-09-20T02:52:47;7.90;99.90
7648;DHT22;3866;48.020;11.720;2022-09-20T02:55:17;7.90;99.90
7648;DHT22;3866;48.020;11.720;2022-09-20T02:57:55;7.90;99.90
7648;DHT22;3866;48.020;11.720;2022-09-20T03:00:26;8.00;99.90
7648;DHT22;3866;48.020;11.720;2022-09-20T03:03:03;7.90;99.90
7648;DHT22;3866;48.020;11.720;2022-09-20T03:05:45;7.90;99.90
7648;DHT22;3866;48.020;11.720;2022-09-20T03:08:27;7.90;99.90
7648;DHT22;3866;48.020;11.720;2022-09-20T03:11:09;7.80;99.90
7648;DHT22;3866;48.020;11.720;2022-09-20T03:14:03;7.80;99.90
7648;DHT22;3866;48.020;11.720;2022-09-20T03:16:44;8.00;99.90
7648;DHT22;3866;48.020;11.720;2022-09-20T03:19:23;7.90;99.90
7648;DHT22;3866;48.020;11.720;2022-09-20T03:22:04;8.00;99.90
7648;DHT22;3866;48.020;11.720;2022-09-20T03:24:41;7.90;99.90
7648;DHT22;3866;48.020;11.720;2022-09-20T03:27:16;8.00;99.90
7648;DHT22;3866;48.020;11.720;2022-09-20T03:29:54;7.90;99.90
7648;DHT22;3866;48.020;11.720;2022-09-20T03:32:42;7.90;99.90
7648;DHT22;3866;48.020;11.720;2022-09-20T03:35:27;7.80;99.90
7648;DHT22;3866;48.020;11.720;2022-09-20T03:38:08;7.80;99.90
7648;DHT22;3866;48.020;11.720;2022-09-20T03:40:50;7.80;99.90
7648;DHT22;3866;48.020;11.720;2022-09-20T03:43:28;7.70;99.90
7648;DHT22;3866;48.020;11.720;2022-09-20T03:46:06;7.70;99.90
7648;DHT22;3866;48.020;11.720;2022-09-20T03:48:55;7.80;99.90
7648;DHT22;3866;48.020;11.720;2022-09-20T03:51:28;7.80;99.90
7648;DHT22;3866;48.020;11.720;2022-09-20T03:57:25;7.60;99.90
7648;DHT22;3866;48.020;11.720;2022-09-20T04:00:06;7.60;99.90
7648;DHT22;3866;48.020;11.720;2022-09-20T04:05:40;7.60;99.90
7648;DHT22;3866;48.020;11.720;2022-09-20T04:08:19;7.60;99.90
7648;DHT22;3866;48.020;11.720;2022-09-20T04:11:00;7.70;99.90
7648;DHT22;3866;48.020;11.720;2022-09-20T04:13:35;7.60;99.90
7648;DHT22;3866;48.020;11.720;2022-09-20T04:16:24;7.70;99.90
7648;DHT22;3866;48.020;11.720;2022-09-20T04:18:56;7.70;99.90
7648;DHT22;3866;48.020;11.720;2022-09-20T04:21:29;7.60;99.90
7648;DHT22;3866;48.020;11.720;2022-09-20T04:24:02;7.70;99.90
7648;DHT22;3866;48.020;11.720;2022-09-20T04:26:33;7.70;99.90
7648;DHT22;3866;48.020;11.720;2022-09-20T04:29:24;7.70;99.90
7648;DHT22;3866;48.020;11.720;2022-09-20T04:31:56;7.70;99.90
7648;DHT22;3866;48.020;11.720;2022-09-20T04:34:29;7.80;99.90
7648;DHT22;3866;48.020;11.720;2022-09-20T04:37:21;7.70;99.90
7648;DHT22;3866;48.020;11.720;2022-09-20T04:39:56;7.80;99.90
7648;DHT22;3866;48.020;11.720;2022-09-20T04:45:48;7.80;99.90
7648;DHT22;3866;48.020;11.720;2022-09-20T04:52:20;7.60;99.90
7648;DHT22;3866;48.020;11.720;2022-09-20T04:55:18;7.60;99.90
7648;DHT22;3866;48.020;11.720;2022-09-20T04:58:06;7.50;99.90
7648;DHT22;3866;48.020;11.720;2022-09-20T05:00:51;7.50;99.90
7648;DHT22;3866;48.020;11.720;2022-09-20T05:04:01;7.60;99.90
7648;DHT22;3866;48.020;11.720;2022-09-20T05:07:01;7.50;99.90
7648;DHT22;3866;48.020;11.720;2022-09-20T05:09:49;7.60;99.90
7648;DHT22;3866;48.020;11.720;2022-09-20T05:12:34;7.50;99.90
7648;DHT22;3866;48.020;11.720;2022-09-20T05:15:32;7.60;99.90
7648;DHT22;3866;48.020;11.720;2022-09-20T05:18:25;7.60;99.90
7648;DHT22;3866;48.020;11.720;2022-09-20T05:21:12;7.50;99.90
7648;DHT22;3866;48.020;11.720;2022-09-20T05:27:02;7.40;99.90
7648;DHT22;3866;48.020;11.720;2022-09-20T05:29:38;7.40;99.90
7648;DHT22;3866;48.020;11.720;2022-09-20T05:32:17;7.30;99.90
7648;DHT22;3866;48.020;11.720;2022-09-20T05:34:52;7.30;99.90
7648;DHT22;3866;48.020;11.720;2022-09-20T05:37:32;7.40;99.90
7648;DHT22;3866;48.020;11.720;2022-09-20T05:40:05;7.40;99.90
7648;DHT22;3866;48.020;11.720;2022-09-20T05:42:41;7.50;99.90
7648;DHT22;3866;48.020;11.720;2022-09-20T05:45:22;7.50;99.90
7648;DHT22;3866;48.020;11.720;2022-09-20T05:47:57;7.40;99.90
7648;DHT22;3866;48.020;11.720;2022-09-20T05:50:36;7.40;99.90
7648;DHT22;3866;48.020;11.720;2022-09-20T05:53:42;7.50;99.90
7648;DHT22;3866;48.020;11.720;2022-09-20T05:56:21;7.50;99.90
7648;DHT22;3866;48.020;11.720;2022-09-20T05:59:00;7.60;99.90
7648;DHT22;3866;48.020;11.720;2022-09-20T06:01:33;7.60;99.90
7648;DHT22;3866;48.020;11.720;2022-09-20T06:04:11;7.60;99.90
7648;DHT22;3866;48.020;11.720;2022-09-20T06:06:48;7.60;99.90
7648;DHT22;3866;48.020;11.720;2022-09-20T06:09:30;7.60;99.90
7648;DHT22;3866;48.020;11.720;2022-09-20T06:12:14;7.80;99.90
7648;DHT22;3866;48.020;11.720;2022-09-20T06:14:49;7.70;99.90
7648;DHT22;3866;48.020;11.720;2022-09-20T06:17:23;7.70;99.90
7648;DHT22;3866;48.020;11.720;2022-09-20T06:20:03;7.70;99.90
7648;DHT22;3866;48.020;11.720;2022-09-20T06:22:40;7.70;99.90
7648;DHT22;3866;48.020;11.720;2022-09-20T06:25:15;7.80;99.90
7648;DHT22;3866;48.020;11.720;2022-09-20T06:27:48;7.80;99.90
7648;DHT22;3866;48.020;11.720;2022-09-20T06:30:19;7.80;99.90
7648;DHT22;3866;48.020;11.720;2022-09-20T06:32:57;7.90;99.90
7648;DHT22;3866;48.020;11.720;2022-09-20T06:35:30;7.90;99.90
7648;DHT22;3866;48.020;11.720;2022-09-20T06:38:18;7.90;99.90
7648;DHT22;3866;48.020;11.720;2022-09-20T06:41:08;7.90;99.90
7648;DHT22;3866;48.020;11.720;2022-09-20T06:43:55;7.90;99.90
7648;DHT22;3866;48.020;11.720;2022-09-20T06:46:25;8.00;99.90
7648;DHT22;3866;48.020;11.720;2022-09-20T06:48:52;8.00;99.90
7648;DHT22;3866;48.020;11.720;2022-09-20T06:51:20;8.00;99.90
7648;DHT22;3866;48.020;11.720;2022-09-20T06:53:49;8.10;99.90
7648;DHT22;3866;48.020;11.720;2022-09-20T06:56:18;8.10;99.90
7648;DHT22;3866;48.020;11.720;2022-09-20T06:58:46;8.00;99.90
7648;DHT22;3866;48.020;11.720;2022-09-20T07:01:13;8.10;99.90
7648;DHT22;3866;48.020;11.720;2022-09-20T07:03:40;8.10;99.90
7648;DHT22;3866;48.020;11.720;2022-09-20T07:06:07;8.10;99.90
7648;DHT22;3866;48.020;11.720;2022-09-20T07:08:34;8.20;99.90
7648;DHT22;3866;48.020;11.720;2022-09-20T07:11:04;8.30;99.90
7648;DHT22;3866;48.020;11.720;2022-09-20T07:13:33;8.30;99.90
7648;DHT22;3866;48.020;11.720;2022-09-20T07:16:02;8.30;99.90
7648;DHT22;3866;48.020;11.720;2022-09-20T07:18:29;8.40;99.90
7648;DHT22;3866;48.020;11.720;2022-09-20T07:20:58;8.50;99.90
7648;DHT22;3866;48.020;11.720;2022-09-20T07:23:25;8.50;99.90
7648;DHT22;3866;48.020;11.720;2022-09-20T07:25:52;8.50;99.90
7648;DHT22;3866;48.020;11.720;2022-09-20T07:28:20;8.50;99.90
7648;DHT22;3866;48.020;11.720;2022-09-20T07:30:47;8.50;99.90
7648;DHT22;3866;48.020;11.720;2022-09-20T07:33:15;8.60;99.90
7648;DHT22;3866;48.020;11.720;2022-09-20T07:35:46;8.60;99.90
7648;DHT22;3866;48.020;11.720;2022-09-20T07:38:13;8.70;99.90
7648;DHT22;3866;48.020;11.720;2022-09-20T07:40:41;8.70;99.90
7648;DHT22;3866;48.020;11.720;2022-09-20T07:43:09;8.70;99.90
7648;DHT22;3866;48.020;11.720;2022-09-20T07:45:37;8.70;99.90
7648;DHT22;3866;48.020;11.720;2022-09-20T07:48:04;8.70;99.90
7648;DHT22;3866;48.020;11.720;2022-09-20T07:50:34;8.80;99.90
7648;DHT22;3866;48.020;11.720;2022-09-20T07:53:01;8.80;99.90
7648;DHT22;3866;48.020;11.720;2022-09-20T07:55:29;8.80;99.90
7648;DHT22;3866;48.020;11.720;2022-09-20T07:57:56;8.90;99.90
7648;DHT22;3866;48.020;11.720;2022-09-20T08:00:23;8.90;99.90
7648;DHT22;3866;48.020;11.720;2022-09-20T08:02:58;8.80;99.90
7648;DHT22;3866;48.020;11.720;2022-09-20T08:05:25;8.80;99.90
7648;DHT22;3866;48.020;11.720;2022-09-20T08:07:54;8.70;99.90
7648;DHT22;3866;48.020;11.720;2022-09-20T08:10:21;8.70;99.90
7648;DHT22;3866;48.020;11.720;2022-09-20T08:12:49;8.90;99.90
7648;DHT22;3866;48.020;11.720;2022-09-20T08:15:16;8.90;99.90
7648;DHT22;3866;48.020;11.720;2022-09-20T08:17:46;8.90;99.90
7648;DHT22;3866;48.020;11.720;2022-09-20T08:20:15;8.90;99.90
7648;DHT22;3866;48.020;11.720;2022-09-20T08:22:42;9.00;99.90
7648;DHT22;3866;48.020;11.720;2022-09-20T08:25:09;9.00;99.90
7648;DHT22;3866;48.020;11.720;2022-09-20T08:27:36;9.00;99.90
7648;DHT22;3866;48.020;11.720;2022-09-20T08:30:04;9.10;99.90
7648;DHT22;3866;48.020;11.720;2022-09-20T08:32:31;9.10;99.90
7648;DHT22;3866;48.020;11.720;2022-09-20T08:34:58;9.00;99.90
7648;DHT22;3866;48.020;11.720;2022-09-20T08:37:26;9.00;99.90
7648;DHT22;3866;48.020;11.720;2022-09-20T08:39:53;9.10;99.90
7648;DHT22;3866;48.020;11.720;2022-09-20T08:42:25;9.20;99.90
7648;DHT22;3866;48.020;11.720;2022-09-20T08:44:55;9.20;99.90
7648;DHT22;3866;48.020;11.720;2022-09-20T08:47:26;9.20;99.90
7648;DHT22;3866;48.020;11.720;2022-09-20T08:49:53;9.10;99.90
7648;DHT22;3866;48.020;11.720;2022-09-20T08:52:28;9.00;99.90
7648;DHT22;3866;48.020;11.720;2022-09-20T08:54:56;9.00;99.90
7648;DHT22;3866;48.020;11.720;2022-09-20T08:57:27;9.10;99.90
7648;DHT22;3866;48.020;11.720;2022-09-20T08:59:57;9.10;99.90
7648;DHT22;3866;48.020;11.720;2022-09-20T09:02:24;9.10;99.90
7648;DHT22;3866;48.020;11.720;2022-09-20T09:04:51;9.20;99.90
7648;DHT22;3866;48.020;11.720;2022-09-20T09:07:20;9.20;99.90
7648;DHT22;3866;48.020;11.720;2022-09-20T09:09:51;9.40;99.90
7648;DHT22;3866;48.020;11.720;2022-09-20T09:12:22;9.30;99.90
7648;DHT22;3866;48.020;11.720;2022-09-20T09:14:51;9.30;99.90
7648;DHT22;3866;48.020;11.720;2022-09-20T09:17:22;9.30;99.90
7648;DHT22;3866;48.020;11.720;2022-09-20T09:19:51;9.40;99.90
7648;DHT22;3866;48.020;11.720;2022-09-20T09:22:24;9.50;99.90
7648;DHT22;3866;48.020;11.720;2022-09-20T09:27:54;9.70;99.90
7648;DHT22;3866;48.020;11.720;2022-09-20T09:30:24;9.80;99.90
7648;DHT22;3866;48.020;11.720;2022-09-20T09:32:52;9.80;99.90
7648;DHT22;3866;48.020;11.720;2022-09-20T09:35:26;9.80;99.90
7648;DHT22;3866;48.020;11.720;2022-09-20T09:37:55;9.90;99.90
7648;DHT22;3866;48.020;11.720;2022-09-20T09:40:24;9.60;99.90
7648;DHT22;3866;48.020;11.720;2022-09-20T09:42:52;9.60;99.90
7648;DHT22;3866;48.020;11.720;2022-09-20T09:45:26;9.70;99.90
7648;DHT22;3866;48.020;11.720;2022-09-20T09:47:56;10.10;99.90
7648;DHT22;3866;48.020;11.720;2022-09-20T09:50:25;10.30;99.90
7648;DHT22;3866;48.020;11.720;2022-09-20T09:52:57;10.50;99.90
7648;DHT22;3866;48.020;11.720;2022-09-20T09:55:37;10.40;99.90
7648;DHT22;3866;48.020;11.720;2022-09-20T09:58:13;10.40;99.90
7648;DHT22;3866;48.020;11.720;2022-09-20T10:00:46;10.40;99.90
7648;DHT22;3866;48.020;11.720;2022-09-20T10:06:22;10.40;99.90
7648;DHT22;3866;48.020;11.720;2022-09-20T10:09:13;10.20;99.90
7648;DHT22;3866;48.020;11.720;2022-09-20T10:12:01;10.30;99.90
7648;DHT22;3866;48.020;11.720;2022-09-20T10:14:39;10.30;99.90
7648;DHT22;3866;48.020;11.720;2022-09-20T10:17:31;10.20;99.90
7648;DHT22;3866;48.020;11.720;2022-09-20T10:20:17;10.40;99.90
7648;DHT22;3866;48.020;11.720;2022-09-20T10:22:55;10.70;99.90
7648;DHT22;3866;48.020;11.720;2022-09-20T10:25:34;11.00;99.90
7648;DHT22;3866;48.020;11.720;2022-09-20T10:28:14;11.10;99.90
7648;DHT22;3866;48.020;11.720;2022-09-20T10:30:48;11.30;99.90
7648;DHT22;3866;48.020;11.720;2022-09-20T10:33:31;11.20;99.90
7648;DHT22;3866;48.020;11.720;2022-09-20T10:36:14;11.20;99.90
7648;DHT22;3866;48.020;11.720;2022-09-20T10:38:47;11.10;99.90
7648;DHT22;3866;48.020;11.720;2022-09-20T10:41:29;11.10;99.90
7648;DHT22;3866;48.020;11.720;2022-09-20T10:44:33;11.20;99.90
7648;DHT22;3866;48.020;11.720;2022-09-20T10:47:09;11.40;99.90
7648;DHT22;3866;48.020;11.720;2022-09-20T10:49:41;11.10;99.90
7648;DHT22;3866;48.020;11.720;2022-09-20T10:52:27;11.10;99.90
7648;DHT22;3866;48.020;11.720;2022-09-20T10:55:06;11.30;99.90
7648;DHT22;3866;48.020;11.720;2022-09-20T11:00:59;11.00;99.90
7648;DHT22;3866;48.020;11.720;2022-09-20T11:03:46;10.90;99.90
7648;DHT22;3866;48.020;11.720;2022-09-20T11:06:23;11.00;99.90
7648;DHT22;3866;48.020;11.720;2022-09-20T11:08:54;11.30;99.90
7648;DHT22;3866;48.020;11.720;2022-09-20T11:11:26;11.40;99.90
7648;DHT22;3866;48.020;11.720;2022-09-20T11:14:02;11.20;99.90
7648;DHT22;3866;48.020;11.720;2022-09-20T11:16:37;11.20;99.90
7648;DHT22;3866;48.020;11.720;2022-09-20T11:19:13;11.20;99.90
7648;DHT22;3866;48.020;11.720;2022-09-20T11:21:48;11.40;99.90
7648;DHT22;3866;48.020;11.720;2022-09-20T11:24:27;11.40;99.90
7648;DHT22;3866;48.020;11.720;2022-09-20T11:26:57;11.40;99.90
7648;DHT22;3866;48.020;11.720;2022-09-20T11:29:30;11.40;99.90
7648;DHT22;3866;48.020;11.720;2022-09-20T11:32:05;11.70;99.90
7648;DHT22;3866;48.020;11.720;2022-09-20T11:34:38;11.70;99.90
7648;DHT22;3866;48.020;11.720;2022-09-20T11:37:08;11.60;99.90
7648;DHT22;3866;48.020;11.720;2022-09-20T11:39:38;11.80;99.90
7648;DHT22;3866;48.020;11.720;2022-09-20T11:42:13;12.00;99.90
7648;DHT22;3866;48.020;11.720;2022-09-20T11:44:43;12.20;99.90
7648;DHT22;3866;48.020;11.720;2022-09-20T11:47:17;12.30;99.90
7648;DHT22;3866;48.020;11.720;2022-09-20T11:49:57;12.50;99.90
7648;DHT22;3866;48.020;11.720;2022-09-20T11:52:53;12.40;99.90
7648;DHT22;3866;48.020;11.720;2022-09-20T11:55:31;12.00;99.90
7648;DHT22;3866;48.020;11.720;2022-09-20T11:58:02;11.80;99.90
7648;DHT22;3866;48.020;11.720;2022-09-20T12:00:31;12.10;99.90
7648;DHT22;3866;48.020;11.720;2022-09-20T12:03:02;12.20;99.90
7648;DHT22;3866;48.020;11.720;2022-09-20T12:05:32;12.50;99.90
7648;DHT22;3866;48.020;11.720;2022-09-20T12:08:02;12.90;99.90
7648;DHT22;3866;48.020;11.720;2022-09-20T12:10:31;12.80;99.90
7648;DHT22;3866;48.020;11.720;2022-09-20T12:13:01;12.60;99.90
7648;DHT22;3866;48.020;11.720;2022-09-20T12:15:31;12.70;99.90
7648;DHT22;3866;48.020;11.720;2022-09-20T12:18:31;12.80;99.90
7648;DHT22;3866;48.020;11.720;2022-09-20T12:21:09;12.30;99.90
7648;DHT22;3866;48.020;11.720;2022-09-20T12:23:59;12.70;99.90
7648;DHT22;3866;48.020;11.720;2022-09-20T12:26:44;13.00;99.90
7648;DHT22;3866;48.020;11.720;2022-09-20T12:32:48;13.10;99.90
7648;DHT22;3866;48.020;11.720;2022-09-20T12:38:33;13.60;99.90
7648;DHT22;3866;48.020;11.720;2022-09-20T12:41:14;13.60;99.90
7648;DHT22;3866;48.020;11.720;2022-09-20T12:43:52;13.50;99.90
7648;DHT22;3866;48.020;11.720;2022-09-20T12:46:23;13.60;99.90
7648;DHT22;3866;48.020;11.720;2022-09-20T12:49:19;13.70;99.90
7648;DHT22;3866;48.020;11.720;2022-09-20T12:52:01;13.60;99.90
7648;DHT22;3866;48.020;11.720;2022-09-20T12:54:51;13.60;99.90
7648;DHT22;3866;48.020;11.720;2022-09-20T12:57:27;13.40;99.90
7648;DHT22;3866;48.020;11.720;2022-09-20T12:59:59;13.50;99.90
7648;DHT22;3866;48.020;11.720;2022-09-20T13:05:33;13.20;99.90
7648;DHT22;3866;48.020;11.720;2022-09-20T13:08:02;13.20;99.90
7648;DHT22;3866;48.020;11.720;2022-09-20T13:10:39;13.60;99.90
7648;DHT22;3866;48.020;11.720;2022-09-20T13:13:18;13.50;99.90
7648;DHT22;3866;48.020;11.720;2022-09-20T13:15:49;13.80;99.90
7648;DHT22;3866;48.020;11.720;2022-09-20T13:18:18;13.40;99.90
7648;DHT22;3866;48.020;11.720;2022-09-20T13:20:46;13.30;99.90
7648;DHT22;3866;48.020;11.720;2022-09-20T13:23:18;13.10;99.90
7648;DHT22;3866;48.020;11.720;2022-09-20T13:25:49;13.30;99.90
7648;DHT22;3866;48.020;11.720;2022-09-20T13:28:23;13.40;99.90
7648;DHT22;3866;48.020;11.720;2022-09-20T13:31:24;13.20;99.90
7648;DHT22;3866;48.020;11.720;2022-09-20T13:33:52;13.30;99.90
7648;DHT22;3866;48.020;11.720;2022-09-20T13:36:24;13.40;99.90
7648;DHT22;3866;48.020;11.720;2022-09-20T13:38:52;13.50;99.90
7648;DHT22;3866;48.020;11.720;2022-09-20T13:41:22;13.80;99.90
7648;DHT22;3866;48.020;11.720;2022-09-20T13:43:50;13.50;99.90
7648;DHT22;3866;48.020;11.720;2022-09-20T13:46:22;13.60;99.90
7648;DHT22;3866;48.020;11.720;2022-09-20T13:48:53;14.10;99.90
7648;DHT22;3866;48.020;11.720;2022-09-20T13:51:25;14.40;99.90
7648;DHT22;3866;48.020;11.720;2022-09-20T13:53:52;14.40;99.90
7648;DHT22;3866;48.020;11.720;2022-09-20T13:56:22;14.40;99.90
7648;DHT22;3866;48.020;11.720;2022-09-20T13:58:51;14.00;99.90
7648;DHT22;3866;48.020;11.720;2022-09-20T14:01:22;13.90;99.90
7648;DHT22;3866;48.020;11.720;2022-09-20T14:03:52;14.70;99.90
7648;DHT22;3866;48.020;11.720;2022-09-20T14:06:24;14.30;99.90
7648;DHT22;3866;48.020;11.720;2022-09-20T14:08:55;14.90;99.90
7648;DHT22;3866;48.020;11.720;2022-09-20T14:11:26;14.60;99.90
7648;DHT22;3866;48.020;11.720;2022-09-20T14:13:55;13.90;99.90
7648;DHT22;3866;48.020;11.720;2022-09-20T14:16:27;13.70;99.90
7648;DHT22;3866;48.020;11.720;2022-09-20T14:18:56;13.70;99.90
7648;DHT22;3866;48.020;11.720;2022-09-20T14:21:25;13.90;99.90
7648;DHT22;3866;48.020;11.720;2022-09-20T14:23:54;13.90;99.90
7648;DHT22;3866;48.020;11.720;2022-09-20T14:26:26;13.90;99.90
7648;DHT22;3866;48.020;11.720;2022-09-20T14:28:53;13.90;99.90
7648;DHT22;3866;48.020;11.720;2022-09-20T14:31:23;13.40;99.90
7648;DHT22;3866;48.020;11.720;2022-09-20T14:33:52;13.30;99.90
7648;DHT22;3866;48.020;11.720;2022-09-20T14:36:21;13.30;99.90
7648;DHT22;3866;48.020;11.720;2022-09-20T14:38:51;13.50;99.90
7648;DHT22;3866;48.020;11.720;2022-09-20T14:41:30;13.40;99.90
7648;DHT22;3866;48.020;11.720;2022-09-20T14:43:59;13.30;99.90
7648;DHT22;3866;48.020;11.720;2022-09-20T14:46:30;13.70;99.90
7648;DHT22;3866;48.020;11.720;2022-09-20T14:49:17;13.80;99.90
7648;DHT22;3866;48.020;11.720;2022-09-20T14:51:44;13.90;99.90
7648;DHT22;3866;48.020;11.720;2022-09-20T14:54:23;14.30;99.90
7648;DHT22;3866;48.020;11.720;2022-09-20T14:56:52;14.40;99.90
7648;DHT22;3866;48.020;11.720;2022-09-20T14:59:26;14.20;99.90
7648;DHT22;3866;48.020;11.720;2022-09-20T15:01:59;14.30;99.90
7648;DHT22;3866;48.020;11.720;2022-09-20T15:04:27;14.50;99.90
7648;DHT22;3866;48.020;11.720;2022-09-20T15:07:00;13.80;99.90
7648;DHT22;3866;48.020;11.720;2022-09-20T15:09:27;13.60;99.90
7648;DHT22;3866;48.020;11.720;2022-09-20T15:12:04;13.30;99.90
7648;DHT22;3866;48.020;11.720;2022-09-20T15:14:31;13.10;99.90
7648;DHT22;3866;48.020;11.720;2022-09-20T15:16:58;13.30;99.90
7648;DHT22;3866;48.020;11.720;2022-09-20T15:19:25;13.30;99.90
7648;DHT22;3866;48.020;11.720;2022-09-20T15:21:52;13.10;99.90
7648;DHT22;3866;48.020;11.720;2022-09-20T15:24:19;12.90;99.90
7648;DHT22;3866;48.020;11.720;2022-09-20T15:26:46;12.90;99.90
7648;DHT22;3866;48.020;11.720;2022-09-20T15:29:15;12.90;99.90
7648;DHT22;3866;48.020;11.720;2022-09-20T15:31:43;12.80;99.90
7648;DHT22;3866;48.020;11.720;2022-09-20T15:34:10;12.60;99.90
7648;DHT22;3866;48.020;11.720;2022-09-20T15:36:39;12.50;99.90
7648;DHT22;3866;48.020;11.720;2022-09-20T15:39:06;12.60;99.90
7648;DHT22;3866;48.020;11.720;2022-09-20T15:41:33;12.50;99.90
7648;DHT22;3866;48.020;11.720;2022-09-20T15:44:00;12.60;99.90
7648;DHT22;3866;48.020;11.720;2022-09-20T15:46:29;12.80;99.90
7648;DHT22;3866;48.020;11.720;2022-09-20T15:48:58;12.70;99.90
7648;DHT22;3866;48.020;11.720;2022-09-20T15:51:27;12.70;99.90
7648;DHT22;3866;48.020;11.720;2022-09-20T15:53:57;12.50;99.90
7648;DHT22;3866;48.020;11.720;2022-09-20T15:56:26;12.60;99.90
7648;DHT22;3866;48.020;11.720;2022-09-20T15:58:55;12.40;99.90
7648;DHT22;3866;48.020;11.720;2022-09-20T16:01:24;12.20;99.90
7648;DHT22;3866;48.020;11.720;2022-09-20T16:03:54;12.30;99.90
7648;DHT22;3866;48.020;11.720;2022-09-20T16:06:22;12.30;99.90
7648;DHT22;3866;48.020;11.720;2022-09-20T16:08:50;12.30;99.90
7648;DHT22;3866;48.020;11.720;2022-09-20T16:11:18;12.20;99.90
7648;DHT22;3866;48.020;11.720;2022-09-20T16:13:46;12.20;99.90
7648;DHT22;3866;48.020;11.720;2022-09-20T16:16:13;12.20;99.90
7648;DHT22;3866;48.020;11.720;2022-09-20T16:18:40;12.10;99.90
7648;DHT22;3866;48.020;11.720;2022-09-20T16:21:26;12.00;99.90
7648;DHT22;3866;48.020;11.720;2022-09-20T16:23:54;11.90;99.90
7648;DHT22;3866;48.020;11.720;2022-09-20T16:26:23;11.70;99.90
7648;DHT22;3866;48.020;11.720;2022-09-20T16:28:51;11.80;99.90
7648;DHT22;3866;48.020;11.720;2022-09-20T16:31:29;11.80;99.90
7648;DHT22;3866;48.020;11.720;2022-09-20T16:33:57;11.80;99.90
7648;DHT22;3866;48.020;11.720;2022-09-20T16:36:26;11.70;99.90
7648;DHT22;3866;48.020;11.720;2022-09-20T16:38:53;11.60;99.90
7648;DHT22;3866;48.020;11.720;2022-09-20T16:41:21;11.60;99.90
7648;DHT22;3866;48.020;11.720;2022-09-20T16:43:49;11.60;99.90
7648;DHT22;3866;48.020;11.720;2022-09-20T16:46:17;11.60;99.90
7648;DHT22;3866;48.020;11.720;2022-09-20T16:48:45;11.60;99.90
7648;DHT22;3866;48.020;11.720;2022-09-20T16:51:14;11.60;99.90
7648;DHT22;3866;48.020;11.720;2022-09-20T16:53:42;11.50;99.90
7648;DHT22;3866;48.020;11.720;2022-09-20T16:56:16;11.50;99.90
7648;DHT22;3866;48.020;11.720;2022-09-20T16:58:46;11.50;99.90
7648;DHT22;3866;48.020;11.720;2022-09-20T17:01:13;11.40;99.90
7648;DHT22;3866;48.020;11.720;2022-09-20T17:03:41;11.40;99.90
7648;DHT22;3866;48.020;11.720;2022-09-20T17:06:09;11.40;99.90
7648;DHT22;3866;48.020;11.720;2022-09-20T17:08:37;11.50;99.90
7648;DHT22;3866;48.020;11.720;2022-09-20T17:11:08;11.30;99.90
7648;DHT22;3866;48.020;11.720;2022-09-20T17:13:35;11.30;99.90
7648;DHT22;3866;48.020;11.720;2022-09-20T17:16:05;11.20;99.90
7648;DHT22;3866;48.020;11.720;2022-09-20T17:18:33;11.10;99.90
7648;DHT22;3866;48.020;11.720;2022-09-20T17:21:04;11.20;99.90
7648;DHT22;3866;48.020;11.720;2022-09-20T17:23:31;11.10;99.90
7648;DHT22;3866;48.020;11.720;2022-09-20T17:26:04;11.10;99.90